sensor_id;sensor_type;location;lat;lon;timestamp;temperature;humidity
85702;DHT22;76139;50.888;3.882;2024-02-21T00:02:10;10.70;80.00
85702;DHT22;76139;50.888;3.882;2024-02-21T00:04:35;10.60;80.10
85702;DHT22;76139;50.888;3.882;2024-02-21T00:07:02;10.40;80.80
85702;DHT22;76139;50.888;3.882;2024-02-21T00:09:27;10.40;81.10
85702;DHT22;76139;50.888;3.882;2024-02-21T00:11:53;10.30;81.30
85702;DHT22;76139;50.888;3.882;2024-02-21T00:14:19;10.40;81.10
85702;DHT22;76139;50.888;3.882;2024-02-21T00:16:45;10.50;80.40
85702;DHT22;76139;50.888;3.882;2024-02-21T00:19:10;10.50;80.50
85702;DHT22;76139;50.888;3.882;2024-02-21T00:21:36;10.40;80.30
85702;DHT22;76139;50.888;3.882;2024-02-21T00:24:02;10.50;79.90
85702;DHT22;76139;50.888;3.882;2024-02-21T00:26:28;10.30;80.20
85702;DHT22;76139;50.888;3.882;2024-02-21T00:28:53;10.30;81.00
85702;DHT22;76139;50.888;3.882;2024-02-21T00:31:19;10.20;81.20
85702;DHT22;76139;50.888;3.882;2024-02-21T00:33:45;10.20;81.10
85702;DHT22;76139;50.888;3.882;2024-02-21T00:36:10;10.20;81.30
85702;DHT22;76139;50.888;3.882;2024-02-21T00:38:36;10.10;81.80
85702;DHT22;76139;50.888;3.882;2024-02-21T00:41:02;10.20;81.80
85702;DHT22;76139;50.888;3.882;2024-02-21T00:43:27;10.10;81.70
85702;DHT22;76139;50.888;3.882;2024-02-21T00:45:53;10.00;82.60
85702;DHT22;76139;50.888;3.882;2024-02-21T00:48:18;10.00;82.50
85702;DHT22;76139;50.888;3.882;2024-02-21T00:50:44;9.90;82.50
85702;DHT22;76139;50.888;3.882;2024-02-21T00:53:10;10.00;82.20
85702;DHT22;76139;50.888;3.882;2024-02-21T00:55:35;9.90;82.10
85702;DHT22;76139;50.888;3.882;2024-02-21T00:58:01;9.90;82.00
85702;DHT22;76139;50.888;3.882;2024-02-21T01:00:27;9.80;82.10
85702;DHT22;76139;50.888;3.882;2024-02-21T01:02:52;9.50;83.30
85702;DHT22;76139;50.888;3.882;2024-02-21T01:05:18;9.50;83.70
85702;DHT22;76139;50.888;3.882;2024-02-21T01:07:45;9.30;84.20
85702;DHT22;76139;50.888;3.882;2024-02-21T01:10:11;9.30;84.00
85702;DHT22;76139;50.888;3.882;2024-02-21T01:12:37;9.50;83.80
85702;DHT22;76139;50.888;3.882;2024-02-21T01:15:03;9.30;84.00
85702;DHT22;76139;50.888;3.882;2024-02-21T01:17:30;9.20;84.40
85702;DHT22;76139;50.888;3.882;2024-02-21T01:19:55;9.10;85.10
85702;DHT22;76139;50.888;3.882;2024-02-21T01:22:21;9.10;85.50
85702;DHT22;76139;50.888;3.882;2024-02-21T01:24:47;9.00;85.60
85702;DHT22;76139;50.888;3.882;2024-02-21T01:27:12;9.10;85.40
85702;DHT22;76139;50.888;3.882;2024-02-21T01:29:38;8.90;86.00
85702;DHT22;76139;50.888;3.882;2024-02-21T01:32:04;8.80;86.40
85702;DHT22;76139;50.888;3.882;2024-02-21T01:34:30;8.80;86.90
85702;DHT22;76139;50.888;3.882;2024-02-21T01:36:56;8.80;86.50
85702;DHT22;76139;50.888;3.882;2024-02-21T01:39:21;8.90;86.20
85702;DHT22;76139;50.888;3.882;2024-02-21T01:41:47;8.90;86.20
85702;DHT22;76139;50.888;3.882;2024-02-21T01:44:13;8.90;85.90
85702;DHT22;76139;50.888;3.882;2024-02-21T01:46:39;8.90;85.80
85702;DHT22;76139;50.888;3.882;2024-02-21T01:49:05;9.00;85.60
85702;DHT22;76139;50.888;3.882;2024-02-21T01:51:31;9.00;85.40
85702;DHT22;76139;50.888;3.882;2024-02-21T01:53:57;9.00;85.00
85702;DHT22;76139;50.888;3.882;2024-02-21T01:56:24;9.00;85.10
85702;DHT22;76139;50.888;3.882;2024-02-21T01:58:51;9.00;85.20
85702;DHT22;76139;50.888;3.882;2024-02-21T02:01:17;9.00;85.00
85702;DHT22;76139;50.888;3.882;2024-02-21T02:03:45;9.00;85.30
85702;DHT22;76139;50.888;3.882;2024-02-21T02:06:11;9.00;85.60
85702;DHT22;76139;50.888;3.882;2024-02-21T02:08:36;9.00;85.10
85702;DHT22;76139;50.888;3.882;2024-02-21T02:11:03;9.00;85.20
85702;DHT22;76139;50.888;3.882;2024-02-21T02:13:28;9.00;85.20
85702;DHT22;76139;50.888;3.882;2024-02-21T02:15:54;9.10;84.80
85702;DHT22;76139;50.888;3.882;2024-02-21T02:18:20;9.20;84.60
85702;DHT22;76139;50.888;3.882;2024-02-21T02:20:47;9.20;84.20
85702;DHT22;76139;50.888;3.882;2024-02-21T02:23:31;9.30;84.10
85702;DHT22;76139;50.888;3.882;2024-02-21T02:25:57;9.30;83.90
85702;DHT22;76139;50.888;3.882;2024-02-21T02:28:23;9.20;84.40
85702;DHT22;76139;50.888;3.882;2024-02-21T02:30:50;9.10;84.50
85702;DHT22;76139;50.888;3.882;2024-02-21T02:33:15;9.30;84.20
85702;DHT22;76139;50.888;3.882;2024-02-21T02:35:43;9.40;83.50
85702;DHT22;76139;50.888;3.882;2024-02-21T02:38:08;9.50;83.20
85702;DHT22;76139;50.888;3.882;2024-02-21T02:40:38;9.50;82.80
85702;DHT22;76139;50.888;3.882;2024-02-21T02:43:04;9.50;82.80
85702;DHT22;76139;50.888;3.882;2024-02-21T02:45:30;9.30;83.10
85702;DHT22;76139;50.888;3.882;2024-02-21T02:47:57;9.40;83.20
85702;DHT22;76139;50.888;3.882;2024-02-21T02:50:23;9.30;83.20
85702;DHT22;76139;50.888;3.882;2024-02-21T02:52:49;9.30;83.50
85702;DHT22;76139;50.888;3.882;2024-02-21T02:55:15;9.20;84.10
85702;DHT22;76139;50.888;3.882;2024-02-21T02:57:41;9.20;84.20
85702;DHT22;76139;50.888;3.882;2024-02-21T03:00:08;9.10;84.30
85702;DHT22;76139;50.888;3.882;2024-02-21T03:02:35;9.00;85.00
85702;DHT22;76139;50.888;3.882;2024-02-21T03:05:01;9.00;85.30
85702;DHT22;76139;50.888;3.882;2024-02-21T03:07:36;9.00;85.10
85702;DHT22;76139;50.888;3.882;2024-02-21T03:10:02;8.90;85.80
85702;DHT22;76139;50.888;3.882;2024-02-21T03:12:27;8.80;86.10
85702;DHT22;76139;50.888;3.882;2024-02-21T03:14:54;8.70;86.60
85702;DHT22;76139;50.888;3.882;2024-02-21T03:17:20;8.70;86.90
85702;DHT22;76139;50.888;3.882;2024-02-21T03:19:46;8.60;86.90
85702;DHT22;76139;50.888;3.882;2024-02-21T03:22:12;8.60;86.90
85702;DHT22;76139;50.888;3.882;2024-02-21T03:24:37;8.60;87.30
85702;DHT22;76139;50.888;3.882;2024-02-21T03:27:03;8.50;87.50
85702;DHT22;76139;50.888;3.882;2024-02-21T03:29:29;8.50;87.90
85702;DHT22;76139;50.888;3.882;2024-02-21T03:31:55;8.50;88.00
85702;DHT22;76139;50.888;3.882;2024-02-21T03:34:20;8.50;88.20
85702;DHT22;76139;50.888;3.882;2024-02-21T03:36:46;8.50;88.10
85702;DHT22;76139;50.888;3.882;2024-02-21T03:39:12;8.40;88.40
85702;DHT22;76139;50.888;3.882;2024-02-21T03:41:37;8.30;88.60
85702;DHT22;76139;50.888;3.882;2024-02-21T03:44:03;8.30;89.10
85702;DHT22;76139;50.888;3.882;2024-02-21T03:46:30;8.20;89.30
85702;DHT22;76139;50.888;3.882;2024-02-21T03:48:57;8.20;89.70
85702;DHT22;76139;50.888;3.882;2024-02-21T03:51:23;8.30;89.50
85702;DHT22;76139;50.888;3.882;2024-02-21T03:53:48;8.40;89.10
85702;DHT22;76139;50.888;3.882;2024-02-21T03:56:14;8.50;88.60
85702;DHT22;76139;50.888;3.882;2024-02-21T03:58:40;8.50;88.70
85702;DHT22;76139;50.888;3.882;2024-02-21T04:01:05;8.50;88.80
85702;DHT22;76139;50.888;3.882;2024-02-21T04:03:31;8.60;88.60
85702;DHT22;76139;50.888;3.882;2024-02-21T04:05:57;8.80;87.80
85702;DHT22;76139;50.888;3.882;2024-02-21T04:08:23;8.60;88.00
85702;DHT22;76139;50.888;3.882;2024-02-21T04:10:49;8.70;87.90
85702;DHT22;76139;50.888;3.882;2024-02-21T04:13:15;8.60;88.10
85702;DHT22;76139;50.888;3.882;2024-02-21T04:15:40;8.60;88.10
85702;DHT22;76139;50.888;3.882;2024-02-21T04:18:06;8.70;88.20
85702;DHT22;76139;50.888;3.882;2024-02-21T04:20:32;8.70;87.90
85702;DHT22;76139;50.888;3.882;2024-02-21T04:22:58;8.70;88.10
85702;DHT22;76139;50.888;3.882;2024-02-21T04:25:24;8.60;88.40
85702;DHT22;76139;50.888;3.882;2024-02-21T04:27:49;8.50;88.90
85702;DHT22;76139;50.888;3.882;2024-02-21T04:30:15;8.50;88.90
85702;DHT22;76139;50.888;3.882;2024-02-21T04:32:41;8.60;88.80
85702;DHT22;76139;50.888;3.882;2024-02-21T04:35:07;8.60;88.40
85702;DHT22;76139;50.888;3.882;2024-02-21T04:37:33;8.70;88.20
85702;DHT22;76139;50.888;3.882;2024-02-21T04:39:59;8.70;88.30
85702;DHT22;76139;50.888;3.882;2024-02-21T04:42:25;8.80;87.90
85702;DHT22;76139;50.888;3.882;2024-02-21T04:44:50;8.80;87.80
85702;DHT22;76139;50.888;3.882;2024-02-21T04:47:16;8.70;87.90
85702;DHT22;76139;50.888;3.882;2024-02-21T04:49:41;8.80;88.00
85702;DHT22;76139;50.888;3.882;2024-02-21T04:52:07;8.80;87.60
85702;DHT22;76139;50.888;3.882;2024-02-21T04:54:33;8.80;87.60
85702;DHT22;76139;50.888;3.882;2024-02-21T04:57:00;8.80;87.50
85702;DHT22;76139;50.888;3.882;2024-02-21T04:59:26;8.80;87.30
85702;DHT22;76139;50.888;3.882;2024-02-21T05:01:52;8.80;87.30
85702;DHT22;76139;50.888;3.882;2024-02-21T05:04:17;8.80;87.20
85702;DHT22;76139;50.888;3.882;2024-02-21T05:06:43;8.80;87.40
85702;DHT22;76139;50.888;3.882;2024-02-21T05:09:09;8.80;87.50
85702;DHT22;76139;50.888;3.882;2024-02-21T05:11:36;8.80;87.80
85702;DHT22;76139;50.888;3.882;2024-02-21T05:14:01;8.80;87.60
85702;DHT22;76139;50.888;3.882;2024-02-21T05:16:28;8.90;87.10
85702;DHT22;76139;50.888;3.882;2024-02-21T05:18:54;9.00;86.50
85702;DHT22;76139;50.888;3.882;2024-02-21T05:21:20;9.10;86.20
85702;DHT22;76139;50.888;3.882;2024-02-21T05:23:45;9.20;85.50
85702;DHT22;76139;50.888;3.882;2024-02-21T05:26:11;9.10;85.80
85702;DHT22;76139;50.888;3.882;2024-02-21T05:28:36;9.10;85.80
85702;DHT22;76139;50.888;3.882;2024-02-21T05:31:02;9.10;86.10
85702;DHT22;76139;50.888;3.882;2024-02-21T05:33:28;9.00;86.60
85702;DHT22;76139;50.888;3.882;2024-02-21T05:35:53;9.00;86.20
85702;DHT22;76139;50.888;3.882;2024-02-21T05:38:19;9.10;85.90
85702;DHT22;76139;50.888;3.882;2024-02-21T05:40:45;9.10;86.10
85702;DHT22;76139;50.888;3.882;2024-02-21T05:43:11;9.10;86.20
85702;DHT22;76139;50.888;3.882;2024-02-21T05:45:37;9.00;86.40
85702;DHT22;76139;50.888;3.882;2024-02-21T05:48:03;9.00;86.60
85702;DHT22;76139;50.888;3.882;2024-02-21T05:50:29;8.90;87.00
85702;DHT22;76139;50.888;3.882;2024-02-21T05:52:55;9.00;86.80
85702;DHT22;76139;50.888;3.882;2024-02-21T05:55:21;9.00;86.80
85702;DHT22;76139;50.888;3.882;2024-02-21T05:57:47;9.10;86.50
85702;DHT22;76139;50.888;3.882;2024-02-21T06:00:13;9.00;86.40
85702;DHT22;76139;50.888;3.882;2024-02-21T06:02:39;9.00;86.80
85702;DHT22;76139;50.888;3.882;2024-02-21T06:05:06;9.00;87.10
85702;DHT22;76139;50.888;3.882;2024-02-21T06:07:33;9.00;87.10
85702;DHT22;76139;50.888;3.882;2024-02-21T06:10:02;8.90;87.10
85702;DHT22;76139;50.888;3.882;2024-02-21T06:12:28;8.90;87.40
85702;DHT22;76139;50.888;3.882;2024-02-21T06:14:54;9.00;87.30
85702;DHT22;76139;50.888;3.882;2024-02-21T06:17:20;8.90;87.60
85702;DHT22;76139;50.888;3.882;2024-02-21T06:19:45;8.80;87.90
85702;DHT22;76139;50.888;3.882;2024-02-21T06:22:11;8.80;88.10
85702;DHT22;76139;50.888;3.882;2024-02-21T06:24:38;8.80;88.30
85702;DHT22;76139;50.888;3.882;2024-02-21T06:27:04;8.70;88.80
85702;DHT22;76139;50.888;3.882;2024-02-21T06:29:32;8.70;89.10
85702;DHT22;76139;50.888;3.882;2024-02-21T06:31:58;8.70;89.50
85702;DHT22;76139;50.888;3.882;2024-02-21T06:34:24;8.70;89.20
85702;DHT22;76139;50.888;3.882;2024-02-21T06:36:50;8.70;89.40
85702;DHT22;76139;50.888;3.882;2024-02-21T06:39:16;8.70;89.20
85702;DHT22;76139;50.888;3.882;2024-02-21T06:41:42;8.80;88.90
85702;DHT22;76139;50.888;3.882;2024-02-21T06:44:08;8.90;88.40
85702;DHT22;76139;50.888;3.882;2024-02-21T06:46:34;8.90;88.20
85702;DHT22;76139;50.888;3.882;2024-02-21T06:49:03;9.00;88.20
85702;DHT22;76139;50.888;3.882;2024-02-21T06:51:29;9.00;87.60
85702;DHT22;76139;50.888;3.882;2024-02-21T06:53:55;9.20;87.30
85702;DHT22;76139;50.888;3.882;2024-02-21T06:56:23;9.20;86.70
85702;DHT22;76139;50.888;3.882;2024-02-21T06:58:57;9.20;86.60
85702;DHT22;76139;50.888;3.882;2024-02-21T07:01:26;9.20;87.20
85702;DHT22;76139;50.888;3.882;2024-02-21T07:03:52;9.20;87.10
85702;DHT22;76139;50.888;3.882;2024-02-21T07:06:17;9.10;87.50
85702;DHT22;76139;50.888;3.882;2024-02-21T07:08:43;9.20;87.30
85702;DHT22;76139;50.888;3.882;2024-02-21T07:11:09;9.00;87.70
85702;DHT22;76139;50.888;3.882;2024-02-21T07:13:34;9.10;87.70
85702;DHT22;76139;50.888;3.882;2024-02-21T07:16:00;9.00;88.10
85702;DHT22;76139;50.888;3.882;2024-02-21T07:18:26;9.10;88.10
85702;DHT22;76139;50.888;3.882;2024-02-21T07:20:52;9.20;87.70
85702;DHT22;76139;50.888;3.882;2024-02-21T07:23:18;9.30;87.30
85702;DHT22;76139;50.888;3.882;2024-02-21T07:25:44;9.20;87.20
85702;DHT22;76139;50.888;3.882;2024-02-21T07:28:10;9.10;87.80
85702;DHT22;76139;50.888;3.882;2024-02-21T07:30:36;9.10;88.10
85702;DHT22;76139;50.888;3.882;2024-02-21T07:33:02;9.20;87.80
85702;DHT22;76139;50.888;3.882;2024-02-21T07:35:27;9.20;87.50
85702;DHT22;76139;50.888;3.882;2024-02-21T07:37:53;9.30;87.20
85702;DHT22;76139;50.888;3.882;2024-02-21T07:40:19;9.30;87.00
85702;DHT22;76139;50.888;3.882;2024-02-21T07:42:44;9.10;87.90
85702;DHT22;76139;50.888;3.882;2024-02-21T07:45:10;9.10;87.90
85702;DHT22;76139;50.888;3.882;2024-02-21T07:47:37;8.90;88.20
85702;DHT22;76139;50.888;3.882;2024-02-21T07:50:05;9.00;88.60
85702;DHT22;76139;50.888;3.882;2024-02-21T07:52:32;9.00;88.80
85702;DHT22;76139;50.888;3.882;2024-02-21T07:54:58;9.10;87.90
85702;DHT22;76139;50.888;3.882;2024-02-21T07:57:24;9.10;87.70
85702;DHT22;76139;50.888;3.882;2024-02-21T07:59:50;9.10;87.50
85702;DHT22;76139;50.888;3.882;2024-02-21T08:02:16;9.10;87.50
85702;DHT22;76139;50.888;3.882;2024-02-21T08:04:42;9.00;87.60
85702;DHT22;76139;50.888;3.882;2024-02-21T08:07:08;9.10;87.10
85702;DHT22;76139;50.888;3.882;2024-02-21T08:09:34;9.20;86.50
85702;DHT22;76139;50.888;3.882;2024-02-21T08:12:00;9.30;86.00
85702;DHT22;76139;50.888;3.882;2024-02-21T08:14:26;9.30;86.10
85702;DHT22;76139;50.888;3.882;2024-02-21T08:16:52;9.40;85.20
85702;DHT22;76139;50.888;3.882;2024-02-21T08:19:21;9.40;84.90
85702;DHT22;76139;50.888;3.882;2024-02-21T08:21:48;9.40;85.20
85702;DHT22;76139;50.888;3.882;2024-02-21T08:24:14;9.60;84.10
85702;DHT22;76139;50.888;3.882;2024-02-21T08:26:44;9.40;84.40
85702;DHT22;76139;50.888;3.882;2024-02-21T08:29:12;9.30;84.80
85702;DHT22;76139;50.888;3.882;2024-02-21T08:31:38;9.30;84.80
85702;DHT22;76139;50.888;3.882;2024-02-21T08:34:04;9.30;84.90
85702;DHT22;76139;50.888;3.882;2024-02-21T08:36:34;9.30;84.00
85702;DHT22;76139;50.888;3.882;2024-02-21T08:39:00;9.20;84.50
85702;DHT22;76139;50.888;3.882;2024-02-21T08:41:27;9.10;84.90
85702;DHT22;76139;50.888;3.882;2024-02-21T08:43:53;9.10;84.90
85702;DHT22;76139;50.888;3.882;2024-02-21T08:46:23;9.10;85.30
85702;DHT22;76139;50.888;3.882;2024-02-21T08:48:52;9.10;84.70
85702;DHT22;76139;50.888;3.882;2024-02-21T08:51:18;9.10;85.00
85702;DHT22;76139;50.888;3.882;2024-02-21T08:53:44;9.10;85.00
85702;DHT22;76139;50.888;3.882;2024-02-21T08:56:10;9.20;84.90
85702;DHT22;76139;50.888;3.882;2024-02-21T08:58:37;9.20;84.40
85702;DHT22;76139;50.888;3.882;2024-02-21T09:01:06;9.30;84.10
85702;DHT22;76139;50.888;3.882;2024-02-21T09:03:36;9.40;83.60
85702;DHT22;76139;50.888;3.882;2024-02-21T09:06:02;9.30;83.30
85702;DHT22;76139;50.888;3.882;2024-02-21T09:08:28;9.20;83.90
85702;DHT22;76139;50.888;3.882;2024-02-21T09:10:54;9.20;84.00
85702;DHT22;76139;50.888;3.882;2024-02-21T09:13:20;9.20;84.20
85702;DHT22;76139;50.888;3.882;2024-02-21T09:15:47;9.20;84.00
85702;DHT22;76139;50.888;3.882;2024-02-21T09:18:13;9.30;83.80
85702;DHT22;76139;50.888;3.882;2024-02-21T09:20:38;9.20;84.20
85702;DHT22;76139;50.888;3.882;2024-02-21T09:23:04;9.30;84.00
85702;DHT22;76139;50.888;3.882;2024-02-21T09:25:30;9.30;83.40
85702;DHT22;76139;50.888;3.882;2024-02-21T09:27:57;9.50;83.20
85702;DHT22;76139;50.888;3.882;2024-02-21T09:30:24;9.70;82.80
85702;DHT22;76139;50.888;3.882;2024-02-21T09:32:49;9.70;82.20
85702;DHT22;76139;50.888;3.882;2024-02-21T09:35:15;9.80;81.80
85702;DHT22;76139;50.888;3.882;2024-02-21T09:37:41;9.70;81.70
85702;DHT22;76139;50.888;3.882;2024-02-21T09:40:07;9.90;81.70
85702;DHT22;76139;50.888;3.882;2024-02-21T09:42:40;9.80;81.20
85702;DHT22;76139;50.888;3.882;2024-02-21T09:45:24;9.90;81.20
85702;DHT22;76139;50.888;3.882;2024-02-21T09:50:44;10.00;81.20
85702;DHT22;76139;50.888;3.882;2024-02-21T09:53:12;10.10;80.30
85702;DHT22;76139;50.888;3.882;2024-02-21T09:55:40;10.10;79.90
85702;DHT22;76139;50.888;3.882;2024-02-21T09:58:07;10.20;79.80
85702;DHT22;76139;50.888;3.882;2024-02-21T10:00:37;10.10;79.60
85702;DHT22;76139;50.888;3.882;2024-02-21T10:03:03;10.00;80.60
85702;DHT22;76139;50.888;3.882;2024-02-21T10:05:34;9.90;81.00
85702;DHT22;76139;50.888;3.882;2024-02-21T10:08:01;9.90;81.10
85702;DHT22;76139;50.888;3.882;2024-02-21T10:10:27;10.10;80.50
85702;DHT22;76139;50.888;3.882;2024-02-21T10:12:53;10.10;80.40
85702;DHT22;76139;50.888;3.882;2024-02-21T10:15:26;10.00;80.70
85702;DHT22;76139;50.888;3.882;2024-02-21T10:18:01;10.00;80.40
85702;DHT22;76139;50.888;3.882;2024-02-21T10:20:29;10.10;80.30
85702;DHT22;76139;50.888;3.882;2024-02-21T10:23:05;9.90;80.40
85702;DHT22;76139;50.888;3.882;2024-02-21T10:25:35;9.80;80.90
85702;DHT22;76139;50.888;3.882;2024-02-21T10:28:04;9.90;80.90
85702;DHT22;76139;50.888;3.882;2024-02-21T10:30:29;9.80;80.70
85702;DHT22;76139;50.888;3.882;2024-02-21T10:32:56;9.90;81.40
85702;DHT22;76139;50.888;3.882;2024-02-21T10:35:28;9.80;80.90
85702;DHT22;76139;50.888;3.882;2024-02-21T10:37:55;9.90;81.00
85702;DHT22;76139;50.888;3.882;2024-02-21T10:40:30;10.00;80.40
85702;DHT22;76139;50.888;3.882;2024-02-21T10:42:58;10.00;80.30
85702;DHT22;76139;50.888;3.882;2024-02-21T10:45:31;9.90;80.60
85702;DHT22;76139;50.888;3.882;2024-02-21T10:48:11;9.90;81.30
85702;DHT22;76139;50.888;3.882;2024-02-21T10:58:53;10.20;79.70
85702;DHT22;76139;50.888;3.882;2024-02-21T11:01:20;10.10;79.40
85702;DHT22;76139;50.888;3.882;2024-02-21T11:03:48;10.20;79.10
85702;DHT22;76139;50.888;3.882;2024-02-21T11:06:15;10.10;79.70
85702;DHT22;76139;50.888;3.882;2024-02-21T11:08:42;10.10;79.60
85702;DHT22;76139;50.888;3.882;2024-02-21T11:11:07;10.00;79.20
85702;DHT22;76139;50.888;3.882;2024-02-21T11:13:37;10.00;79.80
85702;DHT22;76139;50.888;3.882;2024-02-21T11:16:10;10.10;79.80
85702;DHT22;76139;50.888;3.882;2024-02-21T11:18:37;10.20;80.60
85702;DHT22;76139;50.888;3.882;2024-02-21T11:21:04;10.20;79.10
85702;DHT22;76139;50.888;3.882;2024-02-21T11:23:32;10.20;79.60
85702;DHT22;76139;50.888;3.882;2024-02-21T11:26:08;10.10;79.30
85702;DHT22;76139;50.888;3.882;2024-02-21T11:28:34;10.10;79.40
85702;DHT22;76139;50.888;3.882;2024-02-21T11:31:09;10.10;79.30
85702;DHT22;76139;50.888;3.882;2024-02-21T11:33:35;10.10;78.80
85702;DHT22;76139;50.888;3.882;2024-02-21T11:36:01;10.20;79.00
85702;DHT22;76139;50.888;3.882;2024-02-21T11:38:30;10.20;79.00
85702;DHT22;76139;50.888;3.882;2024-02-21T11:40:55;10.30;79.70
85702;DHT22;76139;50.888;3.882;2024-02-21T11:43:21;10.20;78.50
85702;DHT22;76139;50.888;3.882;2024-02-21T11:45:47;10.30;78.60
85702;DHT22;76139;50.888;3.882;2024-02-21T11:48:12;10.40;78.50
85702;DHT22;76139;50.888;3.882;2024-02-21T11:50:39;10.50;78.00
85702;DHT22;76139;50.888;3.882;2024-02-21T11:53:05;10.60;77.50
85702;DHT22;76139;50.888;3.882;2024-02-21T11:55:30;10.70;76.70
85702;DHT22;76139;50.888;3.882;2024-02-21T11:57:56;10.60;76.80
85702;DHT22;76139;50.888;3.882;2024-02-21T12:00:23;10.60;77.20
85702;DHT22;76139;50.888;3.882;2024-02-21T12:02:51;10.60;76.50
85702;DHT22;76139;50.888;3.882;2024-02-21T12:05:19;10.60;76.90
85702;DHT22;76139;50.888;3.882;2024-02-21T12:07:45;10.70;76.00
85702;DHT22;76139;50.888;3.882;2024-02-21T12:10:11;10.70;76.50
85702;DHT22;76139;50.888;3.882;2024-02-21T12:12:38;10.70;75.80
85702;DHT22;76139;50.888;3.882;2024-02-21T12:15:05;10.70;76.40
85702;DHT22;76139;50.888;3.882;2024-02-21T12:17:39;10.60;76.80
85702;DHT22;76139;50.888;3.882;2024-02-21T12:20:06;10.70;76.70
85702;DHT22;76139;50.888;3.882;2024-02-21T12:22:37;10.70;76.40
85702;DHT22;76139;50.888;3.882;2024-02-21T12:25:23;10.70;76.30
85702;DHT22;76139;50.888;3.882;2024-02-21T12:27:51;10.80;76.30
85702;DHT22;76139;50.888;3.882;2024-02-21T12:30:17;10.80;76.20
85702;DHT22;76139;50.888;3.882;2024-02-21T12:32:43;10.90;76.40
85702;DHT22;76139;50.888;3.882;2024-02-21T12:35:09;11.00;75.60
85702;DHT22;76139;50.888;3.882;2024-02-21T12:37:34;10.90;75.70
85702;DHT22;76139;50.888;3.882;2024-02-21T12:40:00;11.00;75.80
85702;DHT22;76139;50.888;3.882;2024-02-21T12:42:26;11.10;75.50
85702;DHT22;76139;50.888;3.882;2024-02-21T12:44:54;11.10;75.40
85702;DHT22;76139;50.888;3.882;2024-02-21T12:47:19;11.10;76.10
85702;DHT22;76139;50.888;3.882;2024-02-21T12:49:49;11.10;75.90
85702;DHT22;76139;50.888;3.882;2024-02-21T12:52:14;11.20;76.20
85702;DHT22;76139;50.888;3.882;2024-02-21T12:54:40;11.00;76.50
85702;DHT22;76139;50.888;3.882;2024-02-21T12:57:06;11.10;76.60
85702;DHT22;76139;50.888;3.882;2024-02-21T12:59:31;11.10;76.20
85702;DHT22;76139;50.888;3.882;2024-02-21T13:01:57;11.10;75.90
85702;DHT22;76139;50.888;3.882;2024-02-21T13:04:23;11.30;76.10
85702;DHT22;76139;50.888;3.882;2024-02-21T13:06:49;11.30;75.90
85702;DHT22;76139;50.888;3.882;2024-02-21T13:09:14;11.30;75.80
85702;DHT22;76139;50.888;3.882;2024-02-21T13:11:40;11.00;76.80
85702;DHT22;76139;50.888;3.882;2024-02-21T13:14:07;10.90;77.30
85702;DHT22;76139;50.888;3.882;2024-02-21T13:16:33;10.80;77.50
85702;DHT22;76139;50.888;3.882;2024-02-21T13:19:06;10.70;78.50
85702;DHT22;76139;50.888;3.882;2024-02-21T13:21:32;10.60;79.20
85702;DHT22;76139;50.888;3.882;2024-02-21T13:23:57;10.70;79.40
85702;DHT22;76139;50.888;3.882;2024-02-21T13:26:23;10.60;79.50
85702;DHT22;76139;50.888;3.882;2024-02-21T13:28:48;10.60;80.30
85702;DHT22;76139;50.888;3.882;2024-02-21T13:31:15;10.60;80.50
85702;DHT22;76139;50.888;3.882;2024-02-21T13:33:42;10.40;81.00
85702;DHT22;76139;50.888;3.882;2024-02-21T13:36:10;10.40;81.30
85702;DHT22;76139;50.888;3.882;2024-02-21T13:38:36;10.30;82.30
85702;DHT22;76139;50.888;3.882;2024-02-21T13:41:01;10.30;82.20
85702;DHT22;76139;50.888;3.882;2024-02-21T13:43:27;10.30;82.70
85702;DHT22;76139;50.888;3.882;2024-02-21T13:46:00;10.10;83.10
85702;DHT22;76139;50.888;3.882;2024-02-21T13:48:31;10.10;83.80
85702;DHT22;76139;50.888;3.882;2024-02-21T13:50:57;10.10;84.00
85702;DHT22;76139;50.888;3.882;2024-02-21T13:53:22;10.00;83.80
85702;DHT22;76139;50.888;3.882;2024-02-21T13:55:49;9.90;84.70
85702;DHT22;76139;50.888;3.882;2024-02-21T13:58:15;10.00;84.90
85702;DHT22;76139;50.888;3.882;2024-02-21T14:00:41;10.00;84.70
85702;DHT22;76139;50.888;3.882;2024-02-21T14:03:07;9.90;84.80
85702;DHT22;76139;50.888;3.882;2024-02-21T14:05:32;9.90;85.80
85702;DHT22;76139;50.888;3.882;2024-02-21T14:07:58;9.90;86.10
85702;DHT22;76139;50.888;3.882;2024-02-21T14:10:24;9.80;85.60
85702;DHT22;76139;50.888;3.882;2024-02-21T14:12:49;9.80;86.60
85702;DHT22;76139;50.888;3.882;2024-02-21T14:15:15;9.70;86.90
85702;DHT22;76139;50.888;3.882;2024-02-21T14:17:42;9.70;87.70
85702;DHT22;76139;50.888;3.882;2024-02-21T14:20:08;9.60;87.70
85702;DHT22;76139;50.888;3.882;2024-02-21T14:22:34;9.60;87.80
85702;DHT22;76139;50.888;3.882;2024-02-21T14:25:00;9.60;88.30
85702;DHT22;76139;50.888;3.882;2024-02-21T14:27:26;9.60;88.00
85702;DHT22;76139;50.888;3.882;2024-02-21T14:29:52;9.60;87.70
85702;DHT22;76139;50.888;3.882;2024-02-21T14:32:18;9.60;88.10
85702;DHT22;76139;50.888;3.882;2024-02-21T14:34:45;9.50;88.00
85702;DHT22;76139;50.888;3.882;2024-02-21T14:37:11;9.50;89.00
85702;DHT22;76139;50.888;3.882;2024-02-21T14:39:38;9.50;88.70
85702;DHT22;76139;50.888;3.882;2024-02-21T14:42:03;9.50;89.30
85702;DHT22;76139;50.888;3.882;2024-02-21T14:44:29;9.40;88.80
85702;DHT22;76139;50.888;3.882;2024-02-21T14:46:55;9.40;89.90
85702;DHT22;76139;50.888;3.882;2024-02-21T14:49:20;9.30;90.30
85702;DHT22;76139;50.888;3.882;2024-02-21T14:51:46;9.30;90.30
85702;DHT22;76139;50.888;3.882;2024-02-21T14:54:12;9.30;90.20
85702;DHT22;76139;50.888;3.882;2024-02-21T14:56:38;9.30;90.50
85702;DHT22;76139;50.888;3.882;2024-02-21T14:59:05;9.30;90.50
85702;DHT22;76139;50.888;3.882;2024-02-21T15:01:36;9.30;90.40
85702;DHT22;76139;50.888;3.882;2024-02-21T15:04:03;9.30;90.60
85702;DHT22;76139;50.888;3.882;2024-02-21T15:06:29;9.30;90.50
85702;DHT22;76139;50.888;3.882;2024-02-21T15:08:57;9.40;90.80
85702;DHT22;76139;50.888;3.882;2024-02-21T15:11:23;9.30;90.50
85702;DHT22;76139;50.888;3.882;2024-02-21T15:13:49;9.30;90.80
85702;DHT22;76139;50.888;3.882;2024-02-21T15:16:14;9.40;90.70
85702;DHT22;76139;50.888;3.882;2024-02-21T15:18:41;9.40;90.60
85702;DHT22;76139;50.888;3.882;2024-02-21T15:21:07;9.30;90.30
85702;DHT22;76139;50.888;3.882;2024-02-21T15:23:36;9.30;90.80
85702;DHT22;76139;50.888;3.882;2024-02-21T15:26:01;9.30;91.10
85702;DHT22;76139;50.888;3.882;2024-02-21T15:28:27;9.40;90.80
85702;DHT22;76139;50.888;3.882;2024-02-21T15:30:54;9.40;90.70
85702;DHT22;76139;50.888;3.882;2024-02-21T15:33:20;9.40;90.80
85702;DHT22;76139;50.888;3.882;2024-02-21T15:35:46;9.30;91.00
85702;DHT22;76139;50.888;3.882;2024-02-21T15:38:13;9.40;91.00
85702;DHT22;76139;50.888;3.882;2024-02-21T15:40:39;9.40;91.00
85702;DHT22;76139;50.888;3.882;2024-02-21T15:43:04;9.40;91.10
85702;DHT22;76139;50.888;3.882;2024-02-21T15:45:30;9.40;90.90
85702;DHT22;76139;50.888;3.882;2024-02-21T15:47:56;9.50;90.80
85702;DHT22;76139;50.888;3.882;2024-02-21T15:50:21;9.50;90.90